首页
METAR-TAF:

METAR-TAF

机场 :

埃尔多拉多国际机场

波哥大, 哥伦比亚

纬度: 04-43N, 经度: 074-09W, 海拔: 2547米

当前天气观测

该预报发布于1小时和14分钟前的03:00 UTC
风速3节,风向东转东南
温度 15°C
湿度 82%
气压 1030 hPa
能見度: 9000
少量云层高于1500英尺
多云层高于2300英尺
附近有阵雨

METAR: SKBO 280300Z 12003KT 9000 VCSH FEW015 BKN023 15/12 Q1030 TEMPO FM0330 RA

时间: 23:14 (04:14 UTC)

预报

该预报发布于5小时和44分钟前的22:30 UTC
预报有效从28日的 00点(UTC)到 28日的 24点(UTC)
风速2节,风向多变
能见度10公里或以上
散云层高于1500英尺
成为
从 28日的 16点(UTC)到 28日的 18点(UTC)
风速12节,风向

TAF: SKBO 272230Z 2800/2824 VRB02KT 9999 SCT015 BECMG 2816/2818 17012KT TX20/2818Z TN10/2810Z

超过4000个机场的气象观测和天气预报(METAR&TAF报告)。

可查询的气象台以黄色和红色小点在地图上表示。

将鼠标移到小点上方,可查看气象台名称。

然后点击查看天气观测和预报。

如需切换地图:点击带黑十字的绿色按钮放大地图;点击带横线的绿色按钮缩小地图;或者点击绿色箭头查看邻近地区的地图。


METAR-TAF: